DLH275D EGLL-EDDF
Flight info
| Callsign | DLH275D |
|---|---|
| Flight time | 1h 6m |
| Altitude | 33000 |
| Route | BPK Q295 MATCH DCT REDFA DCT TACHA DCT NOLRU DCT DIXAT DIXAT1A |
| Aircraft | A346/H-SDE2E3FGHIJ3J4J5M1RWXY/LB1D1 |
Departure
| Time | 2026-05-04 07:02 |
|---|---|
| Airport | London Heathrow Airport (EGLL) |
Arrival
| Time | 2026-05-04 08:08 |
|---|---|
| Airport | Frankfurt Main Airport (EDDF) |
| Time | Latitude | Longitude | Altitude | Speed | Heading |
|---|---|---|---|---|---|
| 2026-05-04 06:45 | 51.47213 | -0.48012 | 95 ft | 0 kts | 270° |
| 2026-05-04 06:50 | 51.47213 | -0.47972 | 96 ft | 3 kts | 270° |
| 2026-05-04 06:51 | 51.47214 | -0.47939 | 98 ft | 3 kts | 270° |
| 2026-05-04 06:51 | 51.47214 | -0.47909 | 98 ft | 3 kts | 261° |
| 2026-05-04 06:51 | 51.47218 | -0.47887 | 96 ft | 3 kts | 235° |
| 2026-05-04 06:51 | 51.47226 | -0.47875 | 96 ft | 3 kts | 202° |
| 2026-05-04 06:52 | 51.47238 | -0.47871 | 94 ft | 1 kts | 180° |
| 2026-05-04 06:52 | 51.47250 | -0.47871 | 96 ft | 3 kts | 180° |
| 2026-05-04 06:52 | 51.47270 | -0.47871 | 95 ft | 2 kts | 180° |
| 2026-05-04 06:52 | 51.47278 | -0.47871 | 95 ft | 0 kts | 180° |
| 2026-05-04 06:54 | 51.47276 | -0.47871 | 94 ft | 1 kts | 180° |
| 2026-05-04 06:54 | 51.47265 | -0.47871 | 94 ft | 3 kts | 180° |
| 2026-05-04 06:55 | 51.47233 | -0.47871 | 94 ft | 6 kts | 180° |
| 2026-05-04 06:55 | 51.47179 | -0.47871 | 94 ft | 9 kts | 180° |
| 2026-05-04 06:55 | 51.47105 | -0.47870 | 94 ft | 11 kts | 180° |
| 2026-05-04 06:55 | 51.47018 | -0.47869 | 94 ft | 14 kts | 180° |
| 2026-05-04 06:56 | 51.46922 | -0.47868 | 94 ft | 14 kts | 180° |
| 2026-05-04 06:57 | 51.46656 | -0.47102 | 97 ft | 21 kts | 89° |
| 2026-05-04 06:58 | 51.46657 | -0.46846 | 98 ft | 24 kts | 90° |
| 2026-05-04 06:58 | 51.46659 | -0.46573 | 98 ft | 24 kts | 89° |
| 2026-05-04 06:58 | 51.46659 | -0.46307 | 98 ft | 23 kts | 90° |
| 2026-05-04 06:58 | 51.46660 | -0.46050 | 98 ft | 23 kts | 90° |
| 2026-05-04 06:59 | 51.46661 | -0.45801 | 94 ft | 22 kts | 89° |
| 2026-05-04 06:59 | 51.46662 | -0.45554 | 94 ft | 22 kts | 89° |
| 2026-05-04 06:59 | 51.46663 | -0.45298 | 95 ft | 24 kts | 90° |
| 2026-05-04 06:59 | 51.46664 | -0.45020 | 95 ft | 26 kts | 90° |
| 2026-05-04 07:01 | 51.46492 | -0.44217 | 95 ft | 30 kts | 270° |
| 2026-05-04 07:01 | 51.46491 | -0.44967 | 97 ft | 102 kts | 270° |
| 2026-05-04 07:02 | 51.46484 | -0.46442 | 100 ft | 160 kts | 270° |
| 2026-05-04 07:02 | 51.46461 | -0.48434 | 404 ft | 185 kts | 270° |
| 2026-05-04 07:02 | 51.46445 | -0.50528 | 1141 ft | 188 kts | 276° |
| 2026-05-04 07:02 | 51.46830 | -0.52506 | 1956 ft | 185 kts | 297° |
| 2026-05-04 07:03 | 51.47455 | -0.54344 | 2517 ft | 197 kts | 300° |
| 2026-05-04 07:03 | 51.48165 | -0.56344 | 2948 ft | 213 kts | 300° |
| 2026-05-04 07:03 | 51.48912 | -0.58523 | 3362 ft | 232 kts | 299° |
| 2026-05-04 07:03 | 51.49682 | -0.60850 | 4121 ft | 237 kts | 298° |
| 2026-05-04 07:04 | 51.50479 | -0.63172 | 5045 ft | 238 kts | 306° |
| 2026-05-04 07:04 | 51.51777 | -0.64794 | 5868 ft | 243 kts | 340° |
| 2026-05-04 07:04 | 51.53472 | -0.65068 | 6591 ft | 254 kts | 4° |
| 2026-05-04 07:04 | 51.55286 | -0.64666 | 7150 ft | 272 kts | 14° |
| 2026-05-04 07:05 | 51.57015 | -0.63214 | 7776 ft | 286 kts | 43° |
| 2026-05-04 07:05 | 51.58280 | -0.60739 | 8698 ft | 288 kts | 57° |
| 2026-05-04 07:05 | 51.59301 | -0.57933 | 9674 ft | 292 kts | 63° |
| 2026-05-04 07:05 | 51.60248 | -0.55029 | 10540 ft | 298 kts | 63° |
| 2026-05-04 07:06 | 51.62304 | -0.48708 | 11285 ft | 347 kts | 63° |
| 2026-05-04 07:06 | 51.63493 | -0.45130 | 11520 ft | 372 kts | 62° |
| 2026-05-04 07:06 | 51.64746 | -0.41388 | 12177 ft | 384 kts | 62° |
| 2026-05-04 07:07 | 51.66029 | -0.37567 | 13071 ft | 390 kts | 62° |
| 2026-05-04 07:08 | 51.74943 | -0.09088 | 18712 ft | 422 kts | 76° |
| 2026-05-04 07:09 | 51.75554 | -0.04425 | 19378 ft | 425 kts | 82° |
| 2026-05-04 07:09 | 51.75966 | 0.00362 | 20020 ft | 430 kts | 84° |
| 2026-05-04 07:09 | 51.76338 | 0.05196 | 20625 ft | 437 kts | 84° |
| 2026-05-04 07:09 | 51.76718 | 0.10112 | 21218 ft | 443 kts | 84° |
| 2026-05-04 07:10 | 51.77114 | 0.15088 | 21848 ft | 449 kts | 84° |
| 2026-05-04 07:10 | 51.77519 | 0.20062 | 22483 ft | 454 kts | 84° |
| 2026-05-04 07:12 | 51.82891 | 0.56188 | 26440 ft | 485 kts | 78° |
| 2026-05-04 07:12 | 51.83731 | 0.61508 | 26869 ft | 491 kts | 78° |
| 2026-05-04 07:12 | 51.84576 | 0.66893 | 27340 ft | 496 kts | 78° |
| 2026-05-04 07:12 | 51.85427 | 0.72337 | 27815 ft | 500 kts | 79° |
| 2026-05-04 07:13 | 51.86284 | 0.77839 | 28314 ft | 504 kts | 79° |
| 2026-05-04 07:13 | 51.87142 | 0.83355 | 29076 ft | 502 kts | 79° |
| 2026-05-04 07:13 | 51.87995 | 0.88852 | 29714 ft | 504 kts | 80° |
| 2026-05-04 07:14 | 51.91364 | 1.10888 | 32096 ft | 502 kts | 79° |
| 2026-05-04 07:14 | 51.92192 | 1.16376 | 32793 ft | 498 kts | 79° |
| 2026-05-04 07:15 | 51.93014 | 1.21824 | 33533 ft | 495 kts | 78° |
| 2026-05-04 07:15 | 51.93827 | 1.27227 | 34220 ft | 491 kts | 78° |
| 2026-05-04 07:15 | 51.94637 | 1.32595 | 34816 ft | 487 kts | 77° |
| 2026-05-04 07:15 | 51.95441 | 1.37929 | 35329 ft | 485 kts | 77° |
| 2026-05-04 07:16 | 51.96240 | 1.43245 | 35826 ft | 484 kts | 77° |
| 2026-05-04 07:16 | 51.97032 | 1.48549 | 36279 ft | 483 kts | 77° |
| 2026-05-04 07:16 | 51.97819 | 1.53841 | 36692 ft | 482 kts | 77° |
| 2026-05-04 07:16 | 51.98603 | 1.59137 | 37101 ft | 482 kts | 77° |
| 2026-05-04 07:17 | 51.99376 | 1.64369 | 37488 ft | 482 kts | 77° |
| 2026-05-04 07:17 | 52.00154 | 1.69659 | 37834 ft | 482 kts | 77° |
| 2026-05-04 07:17 | 52.00932 | 1.74972 | 38141 ft | 483 kts | 77° |
| 2026-05-04 07:17 | 52.01710 | 1.80294 | 38434 ft | 484 kts | 77° |
| 2026-05-04 07:18 | 52.02485 | 1.85622 | 38697 ft | 485 kts | 77° |
| 2026-05-04 07:18 | 52.03009 | 1.89233 | 38842 ft | 486 kts | 77° |
| 2026-05-04 07:18 | 52.03787 | 1.94607 | 38975 ft | 487 kts | 78° |
| 2026-05-04 07:18 | 52.04552 | 1.99909 | 38971 ft | 488 kts | 78° |
| 2026-05-04 07:19 | 52.06095 | 2.10674 | 38982 ft | 489 kts | 78° |
| 2026-05-04 07:19 | 52.07629 | 2.21454 | 38982 ft | 489 kts | 78° |
| 2026-05-04 07:20 | 52.09154 | 2.32249 | 38983 ft | 489 kts | 78° |
| 2026-05-04 07:20 | 52.10669 | 2.43056 | 38983 ft | 489 kts | 78° |
| 2026-05-04 07:22 | 52.18491 | 2.85779 | 38977 ft | 493 kts | 74° |
| 2026-05-04 07:23 | 52.20495 | 2.96484 | 38966 ft | 493 kts | 74° |
| 2026-05-04 07:23 | 52.22500 | 3.07242 | 38972 ft | 496 kts | 75° |
| 2026-05-04 07:24 | 52.23757 | 3.18199 | 38968 ft | 493 kts | 88° |
| 2026-05-04 07:24 | 52.23524 | 3.29354 | 38971 ft | 489 kts | 101° |
| 2026-05-04 07:26 | 52.14422 | 3.70665 | 38972 ft | 484 kts | 115° |
| 2026-05-04 07:27 | 52.11940 | 3.80863 | 38974 ft | 484 kts | 115° |
| 2026-05-04 07:27 | 52.09448 | 3.91070 | 38974 ft | 484 kts | 115° |
| 2026-05-04 07:28 | 52.06960 | 4.01246 | 38970 ft | 485 kts | 116° |
| 2026-05-04 07:28 | 52.04437 | 4.11478 | 38974 ft | 489 kts | 116° |
| 2026-05-04 07:29 | 52.01889 | 4.21772 | 38968 ft | 489 kts | 116° |
| 2026-05-04 07:29 | 51.99340 | 4.32027 | 38965 ft | 489 kts | 116° |
| 2026-05-04 07:30 | 51.96802 | 4.42189 | 38964 ft | 489 kts | 116° |
| 2026-05-04 07:30 | 51.94242 | 4.52406 | 38962 ft | 486 kts | 116° |
| 2026-05-04 07:31 | 51.91685 | 4.62552 | 38968 ft | 485 kts | 116° |
| 2026-05-04 07:33 | 51.81405 | 5.02892 | 38968 ft | 485 kts | 117° |
| 2026-05-04 07:33 | 51.78804 | 5.12979 | 38971 ft | 485 kts | 117° |
| 2026-05-04 07:34 | 51.76197 | 5.23047 | 38970 ft | 485 kts | 117° |
| 2026-05-04 07:34 | 51.73580 | 5.33108 | 38972 ft | 485 kts | 117° |
| 2026-05-04 07:35 | 51.70951 | 5.43184 | 38966 ft | 487 kts | 117° |
| 2026-05-04 07:35 | 51.68305 | 5.53261 | 38968 ft | 487 kts | 118° |
| 2026-05-04 07:36 | 51.65678 | 5.63233 | 38964 ft | 485 kts | 118° |
| 2026-05-04 07:38 | 51.55055 | 6.03097 | 38964 ft | 483 kts | 118° |
| 2026-05-04 07:38 | 51.52382 | 6.13016 | 38737 ft | 483 kts | 118° |
| 2026-05-04 07:39 | 51.51041 | 6.17978 | 38480 ft | 483 kts | 118° |
| 2026-05-04 07:39 | 51.49735 | 6.22956 | 38182 ft | 484 kts | 117° |
| 2026-05-04 07:39 | 51.48500 | 6.27993 | 37805 ft | 486 kts | 116° |
| 2026-05-04 07:39 | 51.47258 | 6.33067 | 37311 ft | 488 kts | 116° |
| 2026-05-04 07:40 | 51.46015 | 6.38140 | 36768 ft | 488 kts | 116° |
| 2026-05-04 07:40 | 51.44762 | 6.43239 | 36195 ft | 488 kts | 116° |
| 2026-05-04 07:40 | 51.43513 | 6.48307 | 35630 ft | 488 kts | 116° |
| 2026-05-04 07:40 | 51.42261 | 6.53375 | 35054 ft | 488 kts | 116° |
| 2026-05-04 07:41 | 51.41008 | 6.58435 | 34481 ft | 488 kts | 116° |
| 2026-05-04 07:41 | 51.39750 | 6.63499 | 33860 ft | 489 kts | 116° |
| 2026-05-04 07:41 | 51.38490 | 6.68564 | 33167 ft | 489 kts | 116° |
| 2026-05-04 07:41 | 51.37227 | 6.73628 | 32495 ft | 489 kts | 116° |
| 2026-05-04 07:42 | 51.35964 | 6.78676 | 31874 ft | 488 kts | 116° |
| 2026-05-04 07:42 | 51.34700 | 6.83719 | 31243 ft | 488 kts | 116° |
| 2026-05-04 07:42 | 51.33431 | 6.88772 | 30598 ft | 488 kts | 116° |
| 2026-05-04 07:42 | 51.32162 | 6.93811 | 30088 ft | 486 kts | 116° |
| 2026-05-04 07:43 | 51.30924 | 6.98723 | 29653 ft | 480 kts | 116° |
| 2026-05-04 07:43 | 51.29665 | 7.03706 | 29212 ft | 474 kts | 116° |
| 2026-05-04 07:43 | 51.28443 | 7.08495 | 28802 ft | 468 kts | 118° |
| 2026-05-04 07:43 | 51.26826 | 7.12909 | 28354 ft | 452 kts | 133° |
| 2026-05-04 07:44 | 51.24666 | 7.16409 | 27934 ft | 436 kts | 147° |
| 2026-05-04 07:44 | 51.22135 | 7.18929 | 27549 ft | 423 kts | 158° |
| 2026-05-04 07:44 | 51.19508 | 7.20984 | 27153 ft | 417 kts | 160° |
| 2026-05-04 07:44 | 51.16909 | 7.22969 | 26770 ft | 412 kts | 159° |
| 2026-05-04 07:45 | 51.14332 | 7.24962 | 26389 ft | 409 kts | 159° |
| 2026-05-04 07:45 | 51.11790 | 7.26955 | 26010 ft | 406 kts | 159° |
| 2026-05-04 07:45 | 51.09284 | 7.28988 | 25609 ft | 403 kts | 158° |
| 2026-05-04 07:45 | 51.06810 | 7.31035 | 25228 ft | 400 kts | 158° |
| 2026-05-04 07:46 | 51.04353 | 7.33068 | 24825 ft | 397 kts | 158° |
| 2026-05-04 07:46 | 51.01893 | 7.35101 | 24237 ft | 400 kts | 158° |
| 2026-05-04 07:46 | 50.99418 | 7.37140 | 23670 ft | 402 kts | 158° |
| 2026-05-04 07:46 | 50.96928 | 7.39187 | 22998 ft | 404 kts | 157° |
| 2026-05-04 07:47 | 50.94426 | 7.41241 | 22363 ft | 404 kts | 157° |
| 2026-05-04 07:47 | 50.91928 | 7.43291 | 21767 ft | 404 kts | 157° |
| 2026-05-04 07:47 | 50.89431 | 7.45337 | 21150 ft | 403 kts | 157° |
| 2026-05-04 07:49 | 50.72577 | 7.59087 | 18169 ft | 376 kts | 156° |
| 2026-05-04 07:49 | 50.70260 | 7.60968 | 17747 ft | 372 kts | 156° |
| 2026-05-04 07:49 | 50.67967 | 7.62828 | 17336 ft | 369 kts | 156° |
| 2026-05-04 07:50 | 50.65697 | 7.64667 | 16944 ft | 365 kts | 156° |
| 2026-05-04 07:50 | 50.63442 | 7.66490 | 16542 ft | 362 kts | 156° |
| 2026-05-04 07:50 | 50.61213 | 7.68288 | 16152 ft | 359 kts | 156° |
| 2026-05-04 07:50 | 50.58995 | 7.70075 | 15774 ft | 356 kts | 156° |
| 2026-05-04 07:51 | 50.56797 | 7.71849 | 15373 ft | 354 kts | 156° |
| 2026-05-04 07:51 | 50.54604 | 7.73617 | 14981 ft | 352 kts | 156° |
| 2026-05-04 07:51 | 50.52431 | 7.75365 | 14589 ft | 351 kts | 156° |
| 2026-05-04 07:51 | 50.50261 | 7.77109 | 14199 ft | 349 kts | 156° |
| 2026-05-04 07:52 | 50.48104 | 7.78840 | 13828 ft | 347 kts | 156° |
| 2026-05-04 07:52 | 50.45964 | 7.80562 | 13402 ft | 345 kts | 155° |
| 2026-05-04 07:52 | 50.43879 | 7.82444 | 13012 ft | 344 kts | 151° |
| 2026-05-04 07:52 | 50.41880 | 7.84576 | 12760 ft | 354 kts | 146° |
| 2026-05-04 07:53 | 50.39913 | 7.86969 | 12736 ft | 360 kts | 144° |
| 2026-05-04 07:54 | 50.26731 | 8.03578 | 9535 ft | 318 kts | 139° |
| 2026-05-04 07:55 | 50.25256 | 8.06055 | 9211 ft | 304 kts | 133° |
| 2026-05-04 07:55 | 50.23970 | 8.08594 | 9094 ft | 294 kts | 131° |
| 2026-05-04 07:55 | 50.22736 | 8.11103 | 8815 ft | 289 kts | 131° |
| 2026-05-04 07:55 | 50.21517 | 8.13585 | 8501 ft | 288 kts | 131° |
| 2026-05-04 07:56 | 50.20295 | 8.16065 | 8117 ft | 288 kts | 131° |
| 2026-05-04 07:56 | 50.19070 | 8.18548 | 7759 ft | 287 kts | 131° |
| 2026-05-04 07:56 | 50.17865 | 8.20990 | 7581 ft | 283 kts | 131° |
| 2026-05-04 07:56 | 50.16660 | 8.23424 | 7455 ft | 283 kts | 131° |
| 2026-05-04 07:57 | 50.15455 | 8.25856 | 7348 ft | 283 kts | 130° |
| 2026-05-04 07:57 | 50.14255 | 8.28278 | 7201 ft | 283 kts | 130° |
| 2026-05-04 07:57 | 50.13050 | 8.30706 | 7098 ft | 283 kts | 130° |
| 2026-05-04 07:57 | 50.11845 | 8.33133 | 7021 ft | 282 kts | 130° |
| 2026-05-04 07:58 | 50.10848 | 8.35773 | 6927 ft | 286 kts | 110° |
| 2026-05-04 07:58 | 50.10604 | 8.38844 | 6851 ft | 289 kts | 89° |
| 2026-05-04 07:58 | 50.10778 | 8.41968 | 6775 ft | 289 kts | 84° |
| 2026-05-04 07:58 | 50.11027 | 8.45058 | 6630 ft | 284 kts | 83° |
| 2026-05-04 07:59 | 50.11284 | 8.48075 | 6466 ft | 277 kts | 83° |
| 2026-05-04 07:59 | 50.11610 | 8.50999 | 6266 ft | 270 kts | 77° |
| 2026-05-04 07:59 | 50.12111 | 8.53786 | 6109 ft | 265 kts | 74° |
| 2026-05-04 07:59 | 50.12651 | 8.56528 | 5974 ft | 264 kts | 73° |
| 2026-05-04 08:00 | 50.13192 | 8.59233 | 5861 ft | 264 kts | 73° |
| 2026-05-04 08:00 | 50.13765 | 8.61950 | 5729 ft | 263 kts | 71° |
| 2026-05-04 08:00 | 50.14403 | 8.64629 | 5610 ft | 263 kts | 70° |
| 2026-05-04 08:02 | 50.18301 | 8.81756 | 4613 ft | 216 kts | 101° |
| 2026-05-04 08:02 | 50.17734 | 8.83816 | 4442 ft | 200 kts | 127° |
| 2026-05-04 08:02 | 50.16808 | 8.85294 | 4294 ft | 185 kts | 156° |
| 2026-05-04 08:03 | 50.15599 | 8.85882 | 4212 ft | 181 kts | 173° |
| 2026-05-04 08:03 | 50.14349 | 8.86100 | 4189 ft | 181 kts | 180° |
| 2026-05-04 08:03 | 50.13094 | 8.86046 | 4169 ft | 180 kts | 187° |
| 2026-05-04 08:03 | 50.11854 | 8.85819 | 4011 ft | 179 kts | 192° |
| 2026-05-04 08:04 | 50.10685 | 8.85238 | 3983 ft | 177 kts | 217° |
| 2026-05-04 08:04 | 50.09927 | 8.83754 | 3775 ft | 176 kts | 242° |
| 2026-05-04 08:04 | 50.09469 | 8.81981 | 3538 ft | 176 kts | 251° |
| 2026-05-04 08:04 | 50.09101 | 8.80176 | 3237 ft | 174 kts | 251° |
| 2026-05-04 08:05 | 50.08851 | 8.78983 | 3088 ft | 175 kts | 250° |
| 2026-05-04 08:05 | 50.08452 | 8.77196 | 2857 ft | 174 kts | 249° |
| 2026-05-04 08:05 | 50.08038 | 8.75435 | 2634 ft | 173 kts | 248° |
| 2026-05-04 08:05 | 50.07615 | 8.73680 | 2421 ft | 173 kts | 249° |
| 2026-05-04 08:06 | 50.07194 | 8.71940 | 2182 ft | 171 kts | 248° |
| 2026-05-04 08:06 | 50.06784 | 8.70245 | 1945 ft | 162 kts | 249° |
| 2026-05-04 08:06 | 50.06401 | 8.68655 | 1723 ft | 153 kts | 249° |
| 2026-05-04 08:06 | 50.06031 | 8.67115 | 1527 ft | 151 kts | 248° |
| 2026-05-04 08:08 | 50.03511 | 8.56586 | 363 ft | 72 kts | 250° |
| 2026-05-04 08:08 | 50.03384 | 8.56050 | 364 ft | 48 kts | 250° |
| 2026-05-04 08:10 | 50.03640 | 8.54738 | 361 ft | 19 kts | 340° |
| 2026-05-04 08:11 | 50.03760 | 8.54772 | 359 ft | 20 kts | 54° |
| 2026-05-04 08:11 | 50.03812 | 8.54959 | 363 ft | 10 kts | 70° |
| 2026-05-04 08:11 | 50.03840 | 8.55079 | 360 ft | 13 kts | 70° |
| 2026-05-04 08:12 | 50.03876 | 8.55226 | 361 ft | 16 kts | 70° |
| 2026-05-04 08:12 | 50.03917 | 8.55401 | 362 ft | 13 kts | 70° |
| 2026-05-04 08:12 | 50.03950 | 8.55538 | 362 ft | 13 kts | 70° |
| 2026-05-04 08:12 | 50.03984 | 8.55680 | 361 ft | 14 kts | 70° |
| 2026-05-04 08:13 | 50.04018 | 8.55825 | 363 ft | 14 kts | 70° |
| 2026-05-04 08:13 | 50.04040 | 8.55918 | 362 ft | 7 kts | 70° |
| 2026-05-04 08:13 | 50.04066 | 8.55964 | 365 ft | 5 kts | 12° |
| 2026-05-04 08:13 | 50.04113 | 8.55956 | 365 ft | 8 kts | 344° |
| 2026-05-04 08:14 | 50.04172 | 8.55928 | 365 ft | 8 kts | 343° |
| 2026-05-04 08:14 | 50.04232 | 8.55941 | 365 ft | 5 kts | 24° |
| 2026-05-04 08:14 | 50.04267 | 8.55961 | 368 ft | 3 kts | 9° |